Time;durP1;ratioP1;P1;durP2;ratioP2;P2;SDS_P1;SDS_P2;PMS_P1;PMS_P2;Temp;Humidity;BMP_temperature;BMP_pressure;BME280_temperature;BME280_humidity;BME280_pressure;Samples;Min_cycle;Max_cycle;Signal;HPM_P1;HPM_P2
2023/06/07 00:01:33;;;;;;;5.25;3.20;;;;;;;18.95;68.32;100137.03;5101741;28;20034;-64
2023/06/07 00:03:59;;;;;;;3.22;2.42;;;;;;;18.86;67.99;100111.44;5100176;28;20482;-63
2023/06/07 00:06:24;;;;;;;4.30;3.08;;;;;;;18.95;67.83;100137.03;5101129;28;20028;-63
2023/06/07 00:08:49;;;;;;;4.80;3.05;;;;;;;18.95;67.96;100137.84;5100361;28;20030;-64
2023/06/07 00:11:15;;;;;;;4.93;2.85;;;;;;;18.92;67.99;100132.06;5099917;28;20043;-64
2023/06/07 00:13:40;;;;;;;6.25;2.90;;;;;;;18.87;68.61;100129.19;5099370;28;20240;-64
2023/06/07 00:16:06;;;;;;;4.47;2.38;;;;;;;18.82;68.90;100132.47;5100801;28;20710;-63
2023/06/07 00:18:31;;;;;;;4.55;2.70;;;;;;;18.81;69.17;100128.16;5100077;28;20047;-64
2023/06/07 00:20:57;;;;;;;4.43;2.63;;;;;;;18.79;69.53;100131.03;5099536;28;20046;-64
2023/06/07 00:23:28;;;;;;;3.13;2.45;;;;;;;18.78;70.14;100133.91;5100632;28;20044;-64
2023/06/07 00:25:54;;;;;;;4.55;2.42;;;;;;;18.76;69.56;100123.41;5099234;28;20360;-64
2023/06/07 00:28:20;;;;;;;3.17;2.30;;;;;;;18.73;69.86;100126.50;5099506;28;20107;-63
2023/06/07 00:30:45;;;;;;;4.35;2.70;;;;;;;18.73;69.82;100131.03;5099452;28;20438;-64
2023/06/07 00:33:11;;;;;;;4.85;3.47;;;;;;;18.76;69.56;100139.50;5100619;28;20076;-63
2023/06/07 00:35:36;;;;;;;3.85;2.85;;;;;;;18.69;70.01;100138.63;5100346;28;20328;-64
2023/06/07 00:38:05;;;;;;;5.53;3.95;;;;;;;18.62;70.34;100127.06;5099460;28;20040;-64
2023/06/07 00:40:30;;;;;;;5.22;2.80;;;;;;;18.69;70.32;100137.81;5100009;28;20040;-63
2023/06/07 00:42:56;;;;;;;4.15;2.92;;;;;;;18.67;70.35;100137.19;5100328;28;20343;-64
2023/06/07 00:45:21;;;;;;;4.85;2.70;;;;;;;18.60;70.61;100136.31;5100970;28;20031;-63
2023/06/07 00:47:47;;;;;;;3.65;2.38;;;;;;;18.59;71.42;100132.81;5099964;28;20042;-64
2023/06/07 00:50:14;;;;;;;5.57;2.72;;;;;;;18.64;71.63;100133.06;5099268;28;20415;-64
2023/06/07 00:52:40;;;;;;;3.22;2.40;;;;;;;18.67;71.64;100131.81;5099345;28;20042;-64
2023/06/07 00:55:08;;;;;;;4.72;2.80;;;;;;;18.66;71.29;100131.00;5103044;28;20103;-64
2023/06/07 00:57:35;;;;;;;3.25;2.65;;;;;;;18.57;71.05;100121.47;5100360;28;20302;-65
2023/06/07 01:00:06;;;;;;;4.72;2.50;;;;;;;18.59;71.37;100121.25;5098426;28;20412;-63
2023/06/07 01:02:34;;;;;;;3.60;2.92;;;;;;;18.61;70.99;100122.75;5097025;28;20036;-64
2023/06/07 01:05:02;;;;;;;4.55;3.08;;;;;;;18.50;71.44;100126.00;5097276;28;20036;-63
2023/06/07 01:07:28;;;;;;;5.05;2.53;;;;;;;18.50;71.69;100124.13;5098921;28;20095;-63
2023/06/07 01:09:54;;;;;;;5.45;2.70;;;;;;;18.49;71.33;100122.47;5097620;28;20036;-64
2023/06/07 01:12:22;;;;;;;5.85;3.00;;;;;;;18.45;71.48;100118.56;5096514;28;20044;-64
2023/06/07 01:14:48;;;;;;;4.03;2.45;;;;;;;18.41;71.77;100114.63;5097495;28;20042;-63
2023/06/07 01:17:16;;;;;;;4.15;2.67;;;;;;;18.43;71.94;100109.91;5096227;28;20395;-63
2023/06/07 01:19:43;;;;;;;5.75;2.97;;;;;;;18.48;71.31;100122.69;5097267;28;20310;-63
2023/06/07 01:22:10;;;;;;;3.38;2.45;;;;;;;18.49;71.03;100119.81;5098139;28;20341;-63
2023/06/07 01:24:37;;;;;;;4.50;2.63;;;;;;;18.47;70.94;100115.69;5098460;28;20031;-63
2023/06/07 01:27:07;;;;;;;5.40;3.00;;;;;;;18.39;71.45;100113.19;5096773;28;20028;-64
2023/06/07 01:29:32;;;;;;;4.22;2.78;;;;;;;18.43;71.80;100117.94;5097518;28;20031;-63
2023/06/07 01:32:02;;;;;;;3.55;2.78;;;;;;;18.40;71.59;100118.34;5098056;28;20042;-62
2023/06/07 01:34:28;;;;;;;4.70;2.88;;;;;;;18.40;72.00;100112.97;5098265;28;20382;-64
2023/06/07 01:36:55;;;;;;;5.78;3.47;;;;;;;18.35;72.91;100111.94;5098208;28;20028;-63
2023/06/07 01:39:23;;;;;;;3.92;3.00;;;;;;;18.26;73.05;100121.19;5097015;28;20354;-64
2023/06/07 01:41:50;;;;;;;5.13;3.17;;;;;;;18.25;73.70;100114.19;5096260;28;20051;-63
2023/06/07 01:44:17;;;;;;;4.75;3.15;;;;;;;18.24;74.42;100118.72;5097939;28;20074;-64
2023/06/07 01:46:43;;;;;;;6.85;3.80;;;;;;;18.17;75.62;100112.53;5098888;28;20031;-64
2023/06/07 01:49:09;;;;;;;5.53;3.65;;;;;;;18.17;76.48;100117.88;5098797;28;20326;-63
2023/06/07 01:51:35;;;;;;;5.03;2.97;;;;;;;18.14;77.16;100113.75;5098255;28;20046;-63
2023/06/07 01:54:01;;;;;;;5.40;2.95;;;;;;;18.03;77.86;100111.66;5097834;28;20043;-63
2023/06/07 01:56:39;;;;;;;5.63;3.55;;;;;;;17.90;79.09;100116.16;5098441;28;20039;-64
2023/06/07 01:59:42;;;;;;;7.25;3.90;;;;;;;17.75;80.92;100114.44;5099199;28;20039;-64
2023/06/07 02:02:19;;;;;;;5.35;3.50;;;;;;;17.78;81.49;100114.03;5096506;28;20048;-63
2023/06/07 02:04:48;;;;;;;5.13;3.38;;;;;;;17.85;80.61;100111.41;5097617;28;20251;-63
2023/06/07 02:07:22;;;;;;;5.20;3.83;;;;;;;17.92;80.47;100122.97;5096814;28;20103;-64
2023/06/07 02:09:48;;;;;;;4.32;3.28;;;;;;;17.90;80.14;100116.97;5099272;28;20325;-64
2023/06/07 02:12:14;;;;;;;5.25;3.85;;;;;;;17.79;80.80;100118.38;5096436;28;20048;-63
2023/06/07 02:14:41;;;;;;;4.53;3.60;;;;;;;17.70;81.73;100116.91;5096558;28;20400;-64
2023/06/07 02:17:07;;;;;;;6.72;3.58;;;;;;;17.78;81.59;100121.25;5097761;28;20331;-64
2023/06/07 02:19:33;;;;;;;4.38;3.53;;;;;;;17.78;81.63;100118.56;5098114;28;20032;-64
2023/06/07 02:21:58;;;;;;;5.63;4.22;;;;;;;17.80;81.85;100113.84;5098752;28;20064;-63
2023/06/07 02:24:25;;;;;;;5.05;3.63;;;;;;;17.90;81.88;100124.19;5098135;28;20070;-64
2023/06/07 02:26:53;;;;;;;7.90;4.03;;;;;;;17.94;81.93;100123.59;5098925;28;20115;-63
2023/06/07 02:29:22;;;;;;;7.35;3.60;;;;;;;17.93;82.10;100118.44;5096556;28;20219;-64
2023/06/07 02:31:48;;;;;;;4.85;3.30;;;;;;;17.91;82.81;100121.31;5096059;28;20325;-63
2023/06/07 02:34:15;;;;;;;4.03;3.35;;;;;;;17.88;83.13;100118.19;5099371;28;20119;-64
2023/06/07 02:36:41;;;;;;;4.30;3.25;;;;;;;17.87;83.58;100122.72;5098221;28;20038;-63
2023/06/07 02:39:07;;;;;;;5.65;3.70;;;;;;;17.88;83.64;100116.34;5098185;28;20466;-64
2023/06/07 02:41:33;;;;;;;7.18;4.60;;;;;;;17.95;83.17;100111.84;5100057;28;20028;-63
2023/06/07 02:43:59;;;;;;;5.90;3.83;;;;;;;17.98;82.51;100116.78;5099489;28;20355;-64
2023/06/07 02:46:24;;;;;;;5.10;3.67;;;;;;;17.93;82.59;100116.56;5101893;28;20364;-64
2023/06/07 02:48:50;;;;;;;6.30;3.88;;;;;;;17.95;83.16;100119.06;5100114;28;20055;-63
2023/06/07 02:51:16;;;;;;;6.60;4.40;;;;;;;17.91;84.29;100120.47;5099036;28;20058;-64
2023/06/07 02:53:41;;;;;;;5.57;4.07;;;;;;;17.90;83.12;100122.34;5102614;28;20048;-64
2023/06/07 02:56:09;;;;;;;5.97;4.38;;;;;;;17.91;85.24;100120.47;5112226;28;20106;-63
2023/06/07 02:58:34;;;;;;;7.93;4.63;;;;;;;17.95;84.69;100119.88;5120167;28;20034;-64
2023/06/07 03:01:00;;;;;;;10.35;5.07;;;;;;;17.98;85.46;100118.66;5121350;28;20027;-64
2023/06/07 03:03:25;;;;;;;12.75;6.53;;;;;;;18.00;88.55;100116.59;5120995;28;20047;-64
2023/06/07 03:05:52;;;;;;;10.75;6.55;;;;;;;18.07;90.82;100117.44;5121292;28;20051;-63
2023/06/07 03:08:18;;;;;;;15.15;6.88;;;;;;;18.11;92.36;100116.00;5120497;28;20194;-64
2023/06/07 03:10:44;;;;;;;14.82;7.70;;;;;;;18.18;94.86;100120.38;5121195;28;20039;-65
2023/06/07 03:13:09;;;;;;;14.02;7.85;;;;;;;18.24;95.76;100112.53;5121668;28;20036;-64
2023/06/07 03:15:35;;;;;;;16.95;8.13;;;;;;;18.31;96.30;100111.53;5121082;28;20317;-64
2023/06/07 03:18:04;;;;;;;11.98;6.85;;;;;;;18.38;96.64;100115.03;5120960;28;20023;-63
2023/06/07 03:20:33;;;;;;;15.65;8.27;;;;;;;18.40;97.20;100114.84;5120948;28;20386;-64
2023/06/07 03:22:58;;;;;;;13.85;7.80;;;;;;;18.38;98.21;100109.69;5120604;28;20027;-64
2023/06/07 03:25:23;;;;;;;12.70;7.72;;;;;;;18.38;99.41;100111.53;5120973;28;20244;-63
2023/06/07 03:27:49;;;;;;;10.25;7.70;;;;;;;18.44;99.63;100108.88;5120874;28;20198;-64
2023/06/07 03:30:15;;;;;;;17.83;8.75;;;;;;;18.42;100.00;100108.25;5120798;28;20054;-63
2023/06/07 03:32:40;;;;;;;15.13;8.65;;;;;;;18.42;100.00;100110.09;5121419;28;20038;-64
2023/06/07 03:35:07;;;;;;;14.15;8.15;;;;;;;18.37;100.00;100113.41;5120833;28;20051;-64
2023/06/07 03:37:32;;;;;;;16.38;7.95;;;;;;;18.33;100.00;100114.84;5120103;28;20038;-64
2023/06/07 03:39:58;;;;;;;17.40;8.48;;;;;;;18.32;100.00;100115.03;5120451;28;20031;-64
2023/06/07 03:42:23;;;;;;;14.80;8.50;;;;;;;18.44;100.00;100118.75;5120764;28;20037;-63
2023/06/07 03:44:49;;;;;;;12.18;8.10;;;;;;;18.54;100.00;100113.00;5120173;28;20044;-64
2023/06/07 03:47:14;;;;;;;12.65;8.70;;;;;;;18.53;100.00;100101.44;5120515;28;20225;-63
2023/06/07 03:49:40;;;;;;;13.65;8.82;;;;;;;18.60;100.00;100118.38;5120357;28;20048;-63
2023/06/07 03:52:06;;;;;;;13.27;8.60;;;;;;;18.67;100.00;100113.88;5119947;28;20039;-63
2023/06/07 03:54:32;;;;;;;18.33;8.95;;;;;;;18.69;100.00;100116.34;5119898;28;20039;-64
2023/06/07 03:56:58;;;;;;;16.85;9.30;;;;;;;18.71;100.00;100119.66;5120301;28;20050;-63
2023/06/07 03:59:25;;;;;;;16.73;9.98;;;;;;;18.78;100.00;100121.34;5119663;28;20043;-63
2023/06/07 04:01:51;;;;;;;13.77;9.52;;;;;;;18.81;100.00;100115.56;5120160;28;20027;-64
2023/06/07 04:04:17;;;;;;;17.10;10.48;;;;;;;18.85;100.00;100121.34;5118853;28;20085;-64
2023/06/07 04:06:43;;;;;;;16.10;10.05;;;;;;;18.92;100.00;100110.59;5119359;28;20032;-64
2023/06/07 04:09:08;;;;;;;14.60;9.63;;;;;;;18.95;99.94;100112.88;5119248;28;20039;-64
2023/06/07 04:11:34;;;;;;;16.42;10.10;;;;;;;18.97;99.51;100113.50;5119682;28;20100;-65
2023/06/07 04:13:59;;;;;;;15.20;9.15;;;;;;;19.01;99.84;100120.91;5120137;28;20222;-64
2023/06/07 04:16:25;;;;;;;19.83;10.60;;;;;;;18.99;99.87;100109.56;5119660;28;20028;-64
2023/06/07 04:18:51;;;;;;;18.75;10.48;;;;;;;19.04;99.60;100111.63;5119995;28;20051;-64
2023/06/07 04:21:16;;;;;;;15.50;10.27;;;;;;;19.07;99.59;100122.78;5118351;28;20035;-64
2023/06/07 04:23:42;;;;;;;16.65;10.45;;;;;;;19.02;98.92;100129.78;5100065;28;20089;-64
2023/06/07 04:26:08;;;;;;;17.17;10.25;;;;;;;19.06;98.90;100126.47;5099067;28;20283;-64
2023/06/07 04:28:34;;;;;;;17.77;10.90;;;;;;;18.99;99.18;100122.16;5099719;28;20031;-63
2023/06/07 04:31:00;;;;;;;18.45;10.65;;;;;;;19.01;98.03;100125.47;5100097;28;20364;-64
2023/06/07 04:33:27;;;;;;;17.58;10.48;;;;;;;18.96;97.71;100120.72;5100526;28;20034;-64
2023/06/07 04:35:59;;;;;;;21.05;11.63;;;;;;;19.02;97.64;100127.94;5097729;28;20032;-64
2023/06/07 04:38:25;;;;;;;17.23;10.65;;;;;;;19.08;97.21;100128.97;5098291;28;20063;-63
2023/06/07 04:40:51;;;;;;;19.35;10.27;;;;;;;19.06;96.89;100137.22;5099172;28;20070;-64
2023/06/07 04:43:18;;;;;;;19.25;10.60;;;;;;;18.94;98.13;100132.69;5099066;28;20073;-63
2023/06/07 04:45:54;;;;;;;21.50;11.48;;;;;;;18.91;99.21;100139.28;5100170;28;20061;-63
2023/06/07 04:48:25;;;;;;;17.52;10.02;;;;;;;19.00;98.84;100143.41;5098683;28;20035;-64
2023/06/07 04:50:52;;;;;;;19.50;10.80;;;;;;;18.87;99.01;100134.53;5100371;28;20040;-64
2023/06/07 04:53:21;;;;;;;19.80;11.07;;;;;;;18.73;100.00;100133.72;5099577;28;20432;-64
2023/06/07 04:55:48;;;;;;;18.70;10.27;;;;;;;18.81;99.46;100139.69;5098951;28;20054;-64
2023/06/07 04:58:16;;;;;;;18.52;10.10;;;;;;;18.59;100.00;100140.84;5099166;28;20365;-64
2023/06/07 05:00:43;;;;;;;14.77;9.73;;;;;;;18.78;99.86;100139.28;5098816;28;20420;-64
2023/06/07 05:03:16;;;;;;;17.17;9.77;;;;;;;18.53;100.00;100133.63;5097141;28;20070;-64
2023/06/07 05:05:42;;;;;;;15.63;9.93;;;;;;;18.60;100.00;100144.38;5098339;28;20226;-63
2023/06/07 05:08:07;;;;;;;16.52;9.52;;;;;;;18.57;100.00;100137.56;5098930;28;20076;-64
2023/06/07 05:10:33;;;;;;;17.60;9.80;;;;;;;18.46;100.00;100132.78;5100143;28;20036;-64
2023/06/07 05:12:58;;;;;;;16.67;10.32;;;;;;;18.19;100.00;100142.63;5100257;28;20043;-63
2023/06/07 05:15:24;;;;;;;14.55;9.50;;;;;;;18.24;100.00;100140.16;5097263;28;20040;-65
2023/06/07 05:17:50;;;;;;;15.32;8.25;;;;;;;17.49;100.00;100147.22;5096550;28;20024;-63
2023/06/07 05:20:16;;;;;;;12.43;8.45;;;;;;;17.23;100.00;100137.16;5097780;28;20070;-64
2023/06/07 05:22:43;;;;;;;15.40;9.10;;;;;;;17.35;100.00;100139.28;5098494;28;20036;-63
2023/06/07 05:25:14;;;;;;;15.13;8.68;;;;;;;17.56;100.00;100148.06;5098327;28;20032;-64
2023/06/07 05:27:40;;;;;;;13.43;7.50;;;;;;;17.43;100.00;100142.63;5099032;28;20043;-63
2023/06/07 05:30:07;;;;;;;16.08;9.75;;;;;;;17.57;100.00;100146.22;5099422;28;20036;-63
2023/06/07 05:32:36;;;;;;;19.30;9.80;;;;;;;17.63;100.00;100148.09;5098482;28;20068;-63
2023/06/07 05:35:02;;;;;;;16.02;8.43;;;;;;;17.60;100.00;100151.19;5097130;28;20233;-64
2023/06/07 05:37:31;;;;;;;13.27;8.82;;;;;;;17.68;100.00;100147.53;5095530;28;20036;-63
2023/06/07 05:39:58;;;;;;;16.55;8.38;;;;;;;17.72;100.00;100136.28;5099351;28;20055;-63
2023/06/07 05:42:23;;;;;;;16.45;9.45;;;;;;;17.33;100.00;100139.50;5098287;28;20324;-64
2023/06/07 05:44:49;;;;;;;14.75;9.18;;;;;;;17.38;100.00;100145.09;5111170;28;20095;-63
2023/06/07 05:47:16;;;;;;;19.88;10.15;;;;;;;17.34;100.00;100143.81;5118413;28;20046;-64
2023/06/07 05:49:43;;;;;;;17.05;9.93;;;;;;;17.64;100.00;100143.56;5118431;28;20031;-64
2023/06/07 05:52:09;;;;;;;16.63;10.82;;;;;;;17.81;100.00;100129.72;5118413;28;20055;-63
2023/06/07 05:54:34;;;;;;;19.38;10.30;;;;;;;18.08;100.00;100145.91;5118418;28;20337;-63
2023/06/07 05:57:01;;;;;;;20.23;11.43;;;;;;;18.12;100.00;100133.75;5118043;28;20039;-63
2023/06/07 05:59:26;;;;;;;19.52;10.77;;;;;;;17.89;100.00;100143.97;5117675;28;20051;-63
2023/06/07 06:01:52;;;;;;;19.20;10.68;;;;;;;17.94;100.00;100144.19;5118456;28;20035;-64
2023/06/07 06:04:18;;;;;;;16.05;10.30;;;;;;;17.81;100.00;100153.00;5118133;28;20043;-63
2023/06/07 06:06:43;;;;;;;16.60;11.23;;;;;;;17.89;100.00;100158.19;5118217;28;20031;-64
2023/06/07 06:09:09;;;;;;;15.68;10.18;;;;;;;18.00;100.00;100144.22;5117931;28;20047;-63
2023/06/07 06:11:35;;;;;;;16.40;10.25;;;;;;;18.14;100.00;100151.28;5117737;28;20032;-64
2023/06/07 06:14:01;;;;;;;17.23;9.82;;;;;;;18.25;100.00;100149.88;5119053;28;20059;-64
2023/06/07 06:16:26;;;;;;;14.23;9.93;;;;;;;18.60;100.00;100142.50;5121912;28;20271;-63
2023/06/07 06:18:52;;;;;;;18.45;10.05;;;;;;;19.01;96.30;100147.75;5122035;28;20084;-64
2023/06/07 06:21:17;;;;;;;15.95;9.98;;;;;;;19.40;91.67;100146.88;5121949;28;20031;-64
2023/06/07 06:23:43;;;;;;;12.32;8.45;;;;;;;19.84;87.45;100155.28;5122167;28;20333;-64
2023/06/07 06:26:08;;;;;;;15.95;10.48;;;;;;;19.94;85.84;100151.13;5121925;28;20329;-64
2023/06/07 06:28:34;;;;;;;16.63;10.75;;;;;;;20.14;84.80;100144.81;5122365;28;20030;-64
2023/06/07 06:31:01;;;;;;;13.35;9.85;;;;;;;20.13;84.35;100143.19;5121772;28;20096;-63
2023/06/07 06:33:26;;;;;;;14.48;10.40;;;;;;;20.17;81.47;100147.09;5122109;28;20027;-63
2023/06/07 06:35:53;;;;;;;15.68;10.38;;;;;;;19.72;83.31;100134.44;5121214;28;20047;-63
2023/06/07 06:38:19;;;;;;;13.05;8.73;;;;;;;20.23;82.72;100136.28;5110995;28;20051;-63
2023/06/07 06:40:45;;;;;;;11.05;8.23;;;;;;;20.46;80.15;100153.78;5101410;28;20102;-64
2023/06/07 06:43:11;;;;;;;16.42;8.65;;;;;;;20.38;80.15;100147.59;5101482;28;20042;-63
2023/06/07 06:45:36;;;;;;;10.93;8.10;;;;;;;20.19;79.45;100142.31;5102078;28;20088;-64
2023/06/07 06:48:02;;;;;;;10.45;7.97;;;;;;;20.39;78.04;100146.56;5102390;28;20077;-64
2023/06/07 06:50:29;;;;;;;9.13;7.30;;;;;;;20.77;78.29;100145.69;5102611;28;20458;-63
2023/06/07 06:52:56;;;;;;;8.50;6.30;;;;;;;21.26;76.03;100136.84;5101875;28;20028;-64
2023/06/07 06:55:21;;;;;;;11.82;6.47;;;;;;;21.85;71.99;100137.25;5104295;28;20373;-64
2023/06/07 06:57:47;;;;;;;7.65;4.65;;;;;;;21.71;69.60;100133.03;5102434;28;20028;-64
2023/06/07 07:00:13;;;;;;;8.15;6.15;;;;;;;21.58;72.22;100132.16;5100978;28;20106;-63
2023/06/07 07:02:38;;;;;;;10.43;6.05;;;;;;;21.26;74.34;100131.44;5101983;28;20256;-64
2023/06/07 07:05:07;;;;;;;9.20;6.80;;;;;;;21.17;74.05;100129.22;5100741;28;20098;-63
2023/06/07 07:07:33;;;;;;;8.25;7.25;;;;;;;21.12;75.48;100127.22;5098230;28;20394;-64
2023/06/07 07:09:59;;;;;;;10.45;6.65;;;;;;;21.72;74.99;100119.34;5098290;28;20499;-64
2023/06/07 07:12:28;;;;;;;9.68;6.55;;;;;;;21.70;73.72;100134.09;5100893;28;20046;-63
2023/06/07 07:14:53;;;;;;;8.35;7.00;;;;;;;21.58;71.66;100131.31;5100641;28;20400;-63
2023/06/07 07:17:19;;;;;;;9.30;7.30;;;;;;;21.58;71.46;100132.16;5100702;28;20035;-63
2023/06/07 07:19:45;;;;;;;9.80;6.97;;;;;;;21.83;73.82;100125.84;5101093;28;20094;-63
2023/06/07 07:22:10;;;;;;;9.52;6.32;;;;;;;21.64;72.40;100123.16;5099612;28;20036;-63
2023/06/07 07:24:36;;;;;;;11.27;6.40;;;;;;;22.09;70.96;100124.75;5100496;28;20040;-64
2023/06/07 07:27:01;;;;;;;6.72;5.47;;;;;;;21.97;68.85;100125.50;5098753;28;20032;-63
2023/06/07 07:29:27;;;;;;;10.77;6.72;;;;;;;22.06;68.50;100127.91;5100656;28;20106;-63
2023/06/07 07:31:52;;;;;;;9.88;6.72;;;;;;;22.33;69.94;100128.38;5100397;28;20048;-64
2023/06/07 07:34:18;;;;;;;8.20;5.25;;;;;;;22.15;68.15;100129.22;5098891;28;20036;-63
2023/06/07 07:36:44;;;;;;;8.18;5.50;;;;;;;22.05;67.85;100119.00;5099500;28;20040;-63
2023/06/07 07:39:11;;;;;;;9.20;5.45;;;;;;;22.47;67.31;100127.13;5099893;28;20109;-64
2023/06/07 07:41:37;;;;;;;12.05;6.68;;;;;;;22.55;66.16;100124.91;5100914;28;20127;-64
2023/06/07 07:44:03;;;;;;;9.35;6.35;;;;;;;22.88;64.82;100123.59;5100127;28;20077;-64
2023/06/07 07:46:29;;;;;;;9.98;6.30;;;;;;;22.57;65.50;100132.78;5100497;28;20136;-64
2023/06/07 07:48:54;;;;;;;9.45;6.50;;;;;;;22.51;68.07;100129.13;5099878;28;20356;-64
2023/06/07 07:51:20;;;;;;;9.63;5.95;;;;;;;22.73;64.43;100120.50;5100081;28;20039;-64
2023/06/07 07:53:47;;;;;;;10.25;5.85;;;;;;;22.76;65.44;100128.94;5099069;28;20044;-64
2023/06/07 07:56:12;;;;;;;8.23;6.00;;;;;;;22.48;66.25;100126.06;5100349;28;20054;-64
2023/06/07 07:58:38;;;;;;;9.95;7.30;;;;;;;22.21;69.06;100125.63;5100264;28;20321;-64
2023/06/07 08:01:04;;;;;;;9.82;7.05;;;;;;;22.17;67.68;100119.03;5099738;28;20116;-63
2023/06/07 08:03:29;;;;;;;9.25;6.68;;;;;;;22.58;67.23;100115.53;5099759;28;20085;-63
2023/06/07 08:05:55;;;;;;;8.20;5.80;;;;;;;22.12;65.92;100114.34;5103592;28;20036;-63
2023/06/07 08:08:20;;;;;;;7.32;5.38;;;;;;;22.45;65.31;100108.47;5100245;28;20032;-64
2023/06/07 08:10:46;;;;;;;8.63;5.78;;;;;;;22.58;65.24;100105.56;5100710;28;20042;-64
2023/06/07 08:13:13;;;;;;;8.00;5.18;;;;;;;22.15;62.95;100107.66;5101518;28;20038;-64
2023/06/07 08:15:39;;;;;;;5.97;4.78;;;;;;;22.23;62.94;100108.16;5101365;28;20036;-64
2023/06/07 08:18:05;;;;;;;8.65;6.30;;;;;;;22.48;62.48;100112.56;5098163;28;20117;-64
2023/06/07 08:20:30;;;;;;;7.78;5.63;;;;;;;22.80;60.08;100111.25;5099426;28;20329;-64
2023/06/07 08:22:56;;;;;;;8.18;4.95;;;;;;;22.74;57.59;100101.34;5099444;28;20325;-64
2023/06/07 08:25:22;;;;;;;9.27;6.15;;;;;;;22.91;63.48;100104.25;5101345;28;20036;-64
2023/06/07 08:27:48;;;;;;;6.63;5.25;;;;;;;22.34;63.05;100106.56;5100020;28;20032;-64
2023/06/07 08:30:14;;;;;;;11.32;5.70;;;;;;;22.22;61.16;100101.13;5100444;28;20039;-64
2023/06/07 08:32:40;;;;;;;6.60;5.70;;;;;;;22.34;63.35;100095.75;5100405;28;20063;-65
2023/06/07 08:35:07;;;;;;;7.47;4.70;;;;;;;22.70;60.87;100096.66;5100325;28;21127;-65
2023/06/07 08:37:33;;;;;;;7.10;5.05;;;;;;;22.75;59.11;100096.78;5097093;28;20051;-64
2023/06/07 08:39:59;;;;;;;8.30;6.10;;;;;;;23.10;60.43;100094.97;5097259;28;20338;-64
2023/06/07 08:42:25;;;;;;;6.65;4.70;;;;;;;22.77;57.27;100103.59;5097768;28;20148;-64
2023/06/07 08:44:51;;;;;;;9.00;5.03;;;;;;;23.07;59.11;100095.44;5099997;28;20138;-65
2023/06/07 08:47:17;;;;;;;9.70;6.22;;;;;;;23.35;57.45;100091.19;5098937;28;20040;-64
2023/06/07 08:49:47;;;;;;;6.82;4.93;;;;;;;23.63;56.47;100101.28;5099235;28;20276;-64
2023/06/07 08:52:12;;;;;;;8.80;5.65;;;;;;;23.82;55.47;100092.75;5100409;28;20032;-63
2023/06/07 08:54:42;;;;;;;6.68;4.70;;;;;;;23.99;54.26;100100.97;5099688;28;20349;-63
2023/06/07 08:57:09;;;;;;;6.25;4.57;;;;;;;23.74;55.14;100087.72;5099380;28;20031;-65
2023/06/07 08:59:36;;;;;;;6.35;4.93;;;;;;;23.44;59.41;100087.06;5098043;28;20063;-64
2023/06/07 09:02:04;;;;;;;6.25;4.60;;;;;;;23.11;56.59;100090.41;5097714;28;20040;-64
2023/06/07 09:04:30;;;;;;;7.60;5.32;;;;;;;23.34;56.51;100082.28;5099533;28;20051;-63
2023/06/07 09:06:55;;;;;;;6.13;4.57;;;;;;;23.57;56.73;100078.72;5098144;28;20055;-64
2023/06/07 09:09:21;;;;;;;7.18;5.10;;;;;;;23.23;57.43;100081.22;5101019;28;20051;-64
2023/06/07 09:11:52;;;;;;;7.45;4.90;;;;;;;23.44;56.46;100079.78;5099978;28;20027;-64
2023/06/07 09:14:18;;;;;;;7.20;5.22;;;;;;;23.25;56.89;100079.09;5102394;28;20086;-64
2023/06/07 09:16:57;;;;;;;7.28;4.68;;;;;;;23.06;58.75;100074.91;5099272;28;20207;-63
2023/06/07 09:19:36;;;;;;;6.97;5.32;;;;;;;23.42;60.17;100075.69;5098902;28;20058;-63
2023/06/07 09:22:04;;;;;;;7.85;5.85;;;;;;;23.70;59.81;100061.41;5104646;28;20228;-64
2023/06/07 09:24:31;;;;;;;7.47;5.30;;;;;;;23.94;59.11;100073.00;5116917;28;20275;-64
2023/06/07 09:26:57;;;;;;;6.75;4.97;;;;;;;23.74;57.16;100071.50;5109471;28;20031;-63
2023/06/07 09:29:23;;;;;;;6.47;4.70;;;;;;;23.31;58.90;100073.81;5098400;28;20036;-63
2023/06/07 09:31:49;;;;;;;7.95;5.65;;;;;;;23.14;60.77;100066.44;5099424;28;20218;-64
2023/06/07 09:34:26;;;;;;;8.77;5.85;;;;;;;23.61;58.85;100066.38;5098193;28;20051;-63
2023/06/07 09:36:53;;;;;;;7.70;5.30;;;;;;;23.70;58.99;100070.34;5098401;28;20039;-64
2023/06/07 09:39:23;;;;;;;7.43;5.15;;;;;;;23.41;59.45;100060.53;5099131;28;20048;-64
2023/06/07 09:41:54;;;;;;;7.55;4.70;;;;;;;23.46;60.20;100055.22;5098754;28;20246;-64
2023/06/07 09:44:28;;;;;;;7.40;4.68;;;;;;;23.54;59.84;100058.41;5096793;28;20538;-65
2023/06/07 09:46:58;;;;;;;8.82;4.55;;;;;;;23.04;58.72;100051.88;5097098;28;20081;-64
2023/06/07 09:49:34;;;;;;;6.90;4.47;;;;;;;23.27;59.66;100054.56;5098458;28;20044;-65
2023/06/07 09:52:04;;;;;;;7.28;5.20;;;;;;;22.88;62.41;100056.09;5099381;28;20071;-64
2023/06/07 09:54:38;;;;;;;8.38;5.15;;;;;;;22.92;64.92;100054.59;5096528;28;20063;-64
2023/06/07 09:57:08;;;;;;;9.13;5.75;;;;;;;22.90;61.75;100057.53;5096779;28;20103;-64
2023/06/07 09:59:36;;;;;;;5.15;4.55;;;;;;;22.91;61.82;100050.25;5097862;28;20044;-64
2023/06/07 10:02:02;;;;;;;5.03;4.53;;;;;;;23.34;60.58;100046.31;5098523;28;20464;-64
2023/06/07 10:04:27;;;;;;;6.45;4.53;;;;;;;23.41;60.92;100047.84;5099001;28;20048;-63
2023/06/07 10:06:58;;;;;;;4.32;3.50;;;;;;;23.20;61.68;100049.28;5097551;28;20245;-64
2023/06/07 10:09:25;;;;;;;4.38;3.90;;;;;;;23.10;59.83;100051.75;5098257;28;20123;-64
2023/06/07 10:11:54;;;;;;;6.00;4.28;;;;;;;23.13;60.94;100047.75;5098293;28;20028;-65
2023/06/07 10:14:23;;;;;;;4.70;3.97;;;;;;;23.02;60.55;100045.91;5098725;28;20028;-64
2023/06/07 10:16:55;;;;;;;5.53;3.97;;;;;;;23.21;59.55;100039.31;5097901;28;20040;-63
2023/06/07 10:19:30;;;;;;;5.05;4.03;;;;;;;23.28;60.87;100040.00;5098562;28;20071;-63
2023/06/07 10:21:58;;;;;;;6.85;4.28;;;;;;;23.24;59.78;100036.13;5098859;28;20036;-64
2023/06/07 10:24:30;;;;;;;4.82;4.32;;;;;;;23.34;61.25;100035.50;5096951;28;20040;-64
2023/06/07 10:27:22;;;;;;;5.13;3.90;;;;;;;23.28;60.21;100031.88;5095490;28;20040;-64
2023/06/07 10:29:54;;;;;;;5.05;3.67;;;;;;;23.44;61.25;100033.03;5091986;28;20144;-64
2023/06/07 10:32:26;;;;;;;5.60;4.03;;;;;;;23.60;60.21;100031.47;5102116;28;20216;-64
2023/06/07 10:34:54;;;;;;;6.25;3.80;;;;;;;23.62;60.43;100030.19;5097135;28;20251;-64
2023/06/07 10:37:20;;;;;;;5.13;3.83;;;;;;;23.73;60.20;100026.59;5096286;28;20495;-64
2023/06/07 10:39:46;;;;;;;5.28;4.00;;;;;;;23.79;61.08;100028.34;5099282;28;20351;-64
2023/06/07 10:42:12;;;;;;;4.78;3.40;;;;;;;23.50;59.53;100029.38;5098595;28;20070;-64
2023/06/07 10:44:38;;;;;;;6.53;5.05;;;;;;;23.32;60.39;100024.13;5099282;28;20048;-63
2023/06/07 10:47:22;;;;;;;6.32;4.43;;;;;;;23.34;60.20;100028.22;5099017;28;20040;-64
2023/06/07 10:49:48;;;;;;;;;;;;;;;23.33;62.81;100028.47;5099522;28;20062;-65
2023/06/07 10:52:16;;;;;;;5.60;4.30;;;;;;;23.31;61.66;100020.59;5098590;28;19955;-64
2023/06/07 10:54:43;;;;;;;6.13;3.90;;;;;;;23.37;61.09;100019.66;5099223;28;20032;-64
2023/06/07 10:57:09;;;;;;;6.75;4.20;;;;;;;23.41;59.30;100025.41;5097541;28;20413;-64
2023/06/07 10:59:36;;;;;;;5.45;4.20;;;;;;;23.53;58.72;100027.00;5098320;28;20115;-65
2023/06/07 11:02:23;;;;;;;6.88;4.13;;;;;;;23.51;56.79;100021.00;5101656;28;20034;-64
2023/06/07 11:04:52;;;;;;;4.75;3.78;;;;;;;23.55;55.53;100019.50;5102792;28;20032;-64
2023/06/07 11:07:22;;;;;;;5.50;4.25;;;;;;;23.53;56.49;100015.38;5102326;28;20043;-64
2023/06/07 11:10:00;;;;;;;5.70;4.30;;;;;;;23.70;57.68;100012.75;5102021;28;20040;-63
2023/06/07 11:12:54;;;;;;;5.82;4.30;;;;;;;23.74;58.43;100011.22;5099082;28;20040;-65
2023/06/07 11:15:24;;;;;;;6.20;4.43;;;;;;;23.75;58.13;100008.25;5090638;28;20261;-64
2023/06/07 11:17:54;;;;;;;6.10;4.00;;;;;;;23.67;55.91;99999.72;5100770;28;20036;-64
2023/06/07 11:20:35;;;;;;;4.85;3.45;;;;;;;23.93;57.38;99992.91;5101586;28;20040;-64